Time;durP1;ratioP1;P1;durP2;ratioP2;P2;SDS_P1;SDS_P2;PMS_P1;PMS_P2;Temp;Humidity;BMP_temperature;BMP_pressure;BME280_temperature;BME280_humidity;BME280_pressure;Samples;Min_cycle;Max_cycle;Signal;HPM_P1;HPM_P2
2023/07/31 00:00:29;;;;;;;3.63;2.45;;;16.00;99.90;;;;;;4894645;29;20036;-37
2023/07/31 00:02:58;;;;;;;3.13;2.20;;;16.00;99.90;;;;;;4898104;29;20039;-35
2023/07/31 00:05:24;;;;;;;2.80;2.50;;;15.90;99.90;;;;;;4912422;29;20047;-35
2023/07/31 00:07:49;;;;;;;3.40;2.42;;;15.90;99.90;;;;;;4913880;29;20509;-35
2023/07/31 00:10:15;;;;;;;3.15;2.30;;;15.90;99.90;;;;;;4916047;29;20036;-35
2023/07/31 00:12:43;;;;;;;3.67;2.28;;;15.80;99.90;;;;;;4913530;29;20040;-35
2023/07/31 00:15:09;;;;;;;4.50;2.47;;;15.90;99.90;;;;;;4872924;29;20055;-35
2023/07/31 00:17:36;;;;;;;4.78;2.97;;;15.80;99.90;;;;;;4933083;23;20048;-87
2023/07/31 00:20:02;;;;;;;4.18;2.92;;;15.80;99.90;;;;;;4884783;29;20047;-86
2023/07/31 00:22:28;;;;;;;3.95;2.75;;;15.80;99.90;;;;;;4873738;29;20452;-87
2023/07/31 00:24:53;;;;;;;2.85;2.55;;;15.80;99.90;;;;;;4896070;29;20036;-87
2023/07/31 00:27:19;;;;;;;3.47;2.63;;;15.80;99.90;;;;;;4880780;29;20040;-87
2023/07/31 00:29:45;;;;;;;3.03;2.63;;;15.80;99.90;;;;;;4885122;29;20491;-89
2023/07/31 00:32:11;;;;;;;2.75;2.53;;;15.80;99.90;;;;;;4883733;29;20051;-88
2023/07/31 00:34:37;;;;;;;3.20;2.47;;;15.70;99.90;;;;;;4884522;29;20048;-88
2023/07/31 00:37:03;;;;;;;3.10;2.80;;;15.70;99.90;;;;;;4884010;29;20475;-87
2023/07/31 00:39:30;;;;;;;3.78;2.58;;;15.70;99.90;;;;;;4884134;29;20075;-87
2023/07/31 00:41:55;;;;;;;3.65;2.90;;;15.60;99.90;;;;;;4892792;29;20443;-87
2023/07/31 00:44:21;;;;;;;3.10;2.53;;;15.60;99.90;;;;;;4885869;29;20127;-87
2023/07/31 00:46:47;;;;;;;4.78;3.20;;;15.60;99.90;;;;;;4886397;29;20086;-87
2023/07/31 00:49:13;;;;;;;2.85;2.50;;;15.60;99.90;;;;;;4891535;29;20047;-87
2023/07/31 00:51:39;;;;;;;3.20;2.80;;;15.60;99.90;;;;;;4897879;29;20423;-87
2023/07/31 00:54:05;;;;;;;3.90;2.47;;;15.60;99.90;;;;;;4884178;29;20036;-87
2023/07/31 00:56:32;;;;;;;3.00;2.40;;;15.60;99.90;;;;;;4877082;29;20149;-88
2023/07/31 00:58:58;;;;;;;3.25;2.88;;;15.60;99.90;;;;;;4884741;29;20044;-86
2023/07/31 01:01:23;;;;;;;3.42;2.15;;;15.50;99.90;;;;;;4897646;29;20032;-87
2023/07/31 01:03:53;;;;;;;3.38;2.17;;;15.50;99.90;;;;;;4901014;29;20048;-87
2023/07/31 01:06:28;;;;;;;3.22;2.30;;;15.50;99.90;;;;;;4884333;29;20031;-87
2023/07/31 01:09:16;;;;;;;2.80;2.38;;;15.50;99.90;;;;;;4900235;29;20178;-88
2023/07/31 01:11:59;;;;;;;2.50;2.05;;;15.50;99.90;;;;;;4882164;29;20406;-86
2023/07/31 01:14:25;;;;;;;3.25;2.40;;;15.50;99.90;;;;;;4884595;29;20495;-88
2023/07/31 01:16:50;;;;;;;1.98;1.85;;;15.40;99.90;;;;;;4899987;29;20123;-87
2023/07/31 01:19:21;;;;;;;3.45;2.10;;;15.50;99.90;;;;;;4878037;29;20058;-87
2023/07/31 01:22:07;;;;;;;2.47;1.50;;;15.40;99.90;;;;;;4882747;29;20044;-88
2023/07/31 01:24:50;;;;;;;2.40;1.70;;;15.40;99.90;;;;;;4903352;29;20419;-87
2023/07/31 01:27:24;;;;;;;2.25;1.60;;;15.40;99.90;;;;;;4879943;29;20377;-88
2023/07/31 01:30:00;;;;;;;2.10;1.65;;;15.40;99.90;;;;;;4899173;29;20044;-88
2023/07/31 01:32:28;;;;;;;1.83;1.65;;;15.40;99.90;;;;;;4882486;29;20510;-88
2023/07/31 01:34:55;;;;;;;2.08;1.88;;;15.40;99.90;;;;;;4888977;29;20499;-87
2023/07/31 01:37:21;;;;;;;1.58;1.42;;;15.40;99.90;;;;;;4890976;29;20040;-88
2023/07/31 01:39:47;;;;;;;1.73;1.63;;;15.40;99.90;;;;;;4909957;29;20040;-86
2023/07/31 01:42:12;;;;;;;2.25;1.27;;;15.40;99.90;;;;;;4894025;29;20551;-88
2023/07/31 01:44:38;;;;;;;2.30;1.55;;;15.40;99.90;;;;;;4899362;29;20100;-87
2023/07/31 01:47:04;;;;;;;1.67;1.40;;;15.40;99.90;;;;;;4899694;29;20498;-87
2023/07/31 01:49:29;;;;;;;2.00;1.52;;;15.40;99.90;;;;;;4875355;29;20036;-88
2023/07/31 01:51:55;;;;;;;2.25;1.20;;;15.40;99.90;;;;;;4883209;29;20036;-86
2023/07/31 01:54:21;;;;;;;1.30;1.15;;;15.40;99.90;;;;;;4883514;29;20032;-88
2023/07/31 01:56:47;;;;;;;1.58;1.25;;;15.40;99.90;;;;;;4884134;29;20047;-88
2023/07/31 01:59:18;;;;;;;1.23;1.13;;;15.40;99.90;;;;;;4883326;29;20040;-87
2023/07/31 02:01:44;;;;;;;2.20;1.30;;;15.40;99.90;;;;;;4899926;29;20118;-88
2023/07/31 02:04:10;;;;;;;1.40;1.30;;;15.40;99.90;;;;;;4899140;29;20067;-87
2023/07/31 02:06:35;;;;;;;1.90;1.48;;;15.40;99.90;;;;;;4882586;29;20570;-88
2023/07/31 02:09:01;;;;;;;1.40;1.30;;;15.40;99.90;;;;;;4883536;29;20040;-88
2023/07/31 02:11:27;;;;;;;2.97;1.58;;;15.40;99.90;;;;;;4881711;29;20044;-88
2023/07/31 02:13:53;;;;;;;1.50;1.40;;;15.40;99.90;;;;;;4883382;29;20035;-88
2023/07/31 02:16:18;;;;;;;1.92;1.63;;;15.40;99.90;;;;;;4893395;28;20024;-86
2023/07/31 02:18:44;;;;;;;2.40;1.58;;;15.50;99.90;;;;;;4909909;28;20040;-86
2023/07/31 02:21:10;;;;;;;3.55;1.90;;;15.50;99.90;;;;;;4907552;28;20025;-86
2023/07/31 02:23:35;;;;;;;1.52;1.42;;;15.50;99.90;;;;;;4923885;28;20055;-87
2023/07/31 02:26:01;;;;;;;1.40;1.30;;;15.50;99.90;;;;;;4923957;28;20052;-85
2023/07/31 02:28:26;;;;;;;2.53;1.20;;;15.50;99.90;;;;;;4886180;29;20407;-87
2023/07/31 02:30:52;;;;;;;1.42;1.33;;;15.50;99.90;;;;;;4880695;29;20032;-88
2023/07/31 02:33:18;;;;;;;1.90;1.63;;;15.50;99.90;;;;;;4897950;29;20044;-88
2023/07/31 02:35:44;;;;;;;2.00;1.80;;;15.50;99.90;;;;;;4897424;29;20078;-87
2023/07/31 02:38:09;;;;;;;2.47;1.60;;;15.50;99.90;;;;;;4882779;29;20036;-88
2023/07/31 02:40:35;;;;;;;1.92;1.70;;;15.50;99.90;;;;;;4880956;29;20047;-88
2023/07/31 02:43:00;;;;;;;1.70;1.48;;;15.50;99.90;;;;;;4893075;29;20040;-86
2023/07/31 02:45:26;;;;;;;1.77;1.67;;;15.50;99.90;;;;;;4882274;29;20040;-88
2023/07/31 02:47:52;;;;;;;1.88;1.60;;;15.60;99.90;;;;;;4882606;29;20051;-87
2023/07/31 02:50:17;;;;;;;1.67;1.58;;;15.60;99.90;;;;;;4883179;29;20039;-87
2023/07/31 02:52:50;;;;;;;2.38;1.90;;;15.60;99.90;;;;;;5127470;27;20387;-33
2023/07/31 02:55:15;;;;;;;2.20;1.98;;;15.60;99.90;;;;;;5127792;27;20597;-33
2023/07/31 02:57:41;;;;;;;2.10;1.95;;;15.60;99.90;;;;;;5127805;27;20035;-33
2023/07/31 03:00:07;;;;;;;1.83;1.63;;;15.60;99.90;;;;;;5128202;27;20031;-33
2023/07/31 03:02:33;;;;;;;2.28;2.00;;;15.60;99.90;;;;;;5127784;27;20042;-33
2023/07/31 03:04:59;;;;;;;2.75;1.98;;;15.70;99.90;;;;;;5127785;27;20042;-33
2023/07/31 03:07:24;;;;;;;2.05;1.88;;;15.70;99.90;;;;;;5127597;27;20228;-33
2023/07/31 03:09:50;;;;;;;2.10;1.90;;;15.70;99.90;;;;;;5120256;27;20047;-33
2023/07/31 03:12:16;;;;;;;2.50;1.90;;;15.70;99.90;;;;;;5118993;28;20092;-33
2023/07/31 03:14:41;;;;;;;2.42;2.03;;;15.70;99.90;;;;;;5122970;27;20126;-33
2023/07/31 03:17:07;;;;;;;2.40;2.05;;;15.70;99.90;;;;;;5127222;27;20036;-33
2023/07/31 03:19:33;;;;;;;3.10;2.10;;;15.80;99.90;;;;;;5127663;27;20035;-33
2023/07/31 03:21:59;;;;;;;1.90;1.70;;;15.80;99.90;;;;;;5126872;27;20039;-33
2023/07/31 03:24:26;;;;;;;2.25;1.65;;;15.80;99.90;;;;;;5120290;27;20035;-33
2023/07/31 03:26:51;;;;;;;1.70;1.58;;;15.80;99.90;;;;;;5126958;28;20050;-33
2023/07/31 03:29:17;;;;;;;2.75;1.50;;;15.80;99.90;;;;;;5125910;28;20058;-33
2023/07/31 03:31:43;;;;;;;3.40;1.77;;;15.80;99.90;;;;;;5125648;28;20503;-33
2023/07/31 03:34:08;;;;;;;2.53;1.70;;;15.90;99.90;;;;;;5126157;27;20365;-34
2023/07/31 03:36:34;;;;;;;2.40;1.98;;;15.80;99.90;;;;;;5120682;28;20080;-33
2023/07/31 03:39:00;;;;;;;2.25;2.05;;;15.80;99.90;;;;;;5105534;28;20040;-33
2023/07/31 03:41:25;;;;;;;1.65;1.55;;;15.80;99.90;;;;;;5119516;28;20488;-34
2023/07/31 03:43:51;;;;;;;1.77;1.60;;;15.80;99.90;;;;;;5127049;27;20050;-33
2023/07/31 03:46:19;;;;;;;2.60;1.63;;;15.80;99.90;;;;;;5126992;27;20044;-33
2023/07/31 03:48:44;;;;;;;1.80;1.65;;;15.80;99.90;;;;;;5126712;27;20089;-33
2023/07/31 03:51:10;;;;;;;2.03;1.50;;;15.80;99.90;;;;;;5126569;27;20044;-33
2023/07/31 03:53:36;;;;;;;2.42;1.88;;;15.80;99.90;;;;;;5126770;27;20042;-33
2023/07/31 03:56:01;;;;;;;2.72;1.40;;;15.90;99.90;;;;;;5126934;27;20027;-33
2023/07/31 03:58:27;;;;;;;1.55;1.40;;;15.90;99.90;;;;;;5127017;27;20110;-33
2023/07/31 04:00:53;;;;;;;1.60;1.45;;;15.90;99.90;;;;;;5127016;27;20042;-33
2023/07/31 04:03:18;;;;;;;1.90;1.70;;;15.90;99.90;;;;;;5109020;27;20142;-33
2023/07/31 04:05:44;;;;;;;1.65;1.55;;;15.90;99.90;;;;;;5108422;28;20063;-33
2023/07/31 04:08:10;;;;;;;3.72;1.88;;;15.90;99.90;;;;;;5113153;28;20044;-33
2023/07/31 04:10:36;;;;;;;1.92;1.70;;;15.90;99.90;;;;;;5099891;28;20063;-34
2023/07/31 04:13:01;;;;;;;2.05;1.20;;;16.00;99.90;;;;;;5098092;28;20115;-34
2023/07/31 04:15:27;;;;;;;1.60;1.48;;;16.00;99.90;;;;;;5113381;28;20039;-33
2023/07/31 04:17:55;;;;;;;1.58;1.30;;;16.00;99.90;;;;;;5113512;28;20120;-33
2023/07/31 04:20:21;;;;;;;2.53;1.15;;;16.00;99.90;;;;;;5111707;28;20089;-33
2023/07/31 04:22:47;;;;;;;1.75;1.45;;;16.00;99.90;;;;;;5111381;28;20458;-34
2023/07/31 04:25:12;;;;;;;2.45;1.27;;;16.10;99.90;;;;;;5092447;28;20352;-33
2023/07/31 04:27:40;;;;;;;1.30;1.20;;;16.00;99.90;;;;;;5092441;28;20040;-33
2023/07/31 04:30:06;;;;;;;1.75;1.50;;;16.00;99.90;;;;;;5110093;28;20422;-33
2023/07/31 04:32:32;;;;;;;1.48;0.95;;;16.00;99.90;;;;;;5112762;28;20079;-33
2023/07/31 04:34:57;;;;;;;1.10;1.00;;;16.10;99.90;;;;;;5112404;28;20125;-33
2023/07/31 04:37:23;;;;;;;1.80;1.10;;;16.10;99.90;;;;;;5111287;28;20096;-33
2023/07/31 04:39:48;;;;;;;2.33;1.30;;;16.10;99.90;;;;;;5112683;28;20616;-33
2023/07/31 04:42:14;;;;;;;1.92;1.20;;;16.10;99.90;;;;;;5112649;28;20040;-33
2023/07/31 04:44:40;;;;;;;4.20;2.10;;;16.10;99.90;;;;;;5112583;28;20506;-34
2023/07/31 04:47:05;;;;;;;2.90;1.80;;;16.10;99.90;;;;;;5101263;27;20035;-33
2023/07/31 04:49:32;;;;;;;4.47;2.42;;;16.10;99.90;;;;;;5095499;28;20484;-33
2023/07/31 04:51:58;;;;;;;7.13;2.80;;;16.10;99.90;;;;;;5112009;28;20093;-34
2023/07/31 04:54:24;;;;;;;6.32;3.10;;;16.10;99.90;;;;;;5077846;28;20032;-33
2023/07/31 04:56:49;;;;;;;9.27;4.82;;;16.20;99.90;;;;;;5104123;28;20029;-33
2023/07/31 04:59:15;;;;;;;14.02;5.05;;;16.20;99.90;;;;;;5108541;28;20530;-34
2023/07/31 05:01:41;;;;;;;11.50;5.57;;;16.20;99.90;;;;;;5092047;28;20036;-33
2023/07/31 05:04:06;;;;;;;12.23;5.50;;;16.30;99.90;;;;;;5093376;28;20047;-34
2023/07/31 05:06:32;;;;;;;9.52;6.13;;;16.30;99.90;;;;;;5100438;28;20408;-33
2023/07/31 05:08:58;;;;;;;12.40;6.38;;;16.30;99.90;;;;;;5109271;28;20481;-34
2023/07/31 05:11:24;;;;;;;14.65;7.30;;;16.30;99.90;;;;;;5091726;28;20158;-33
2023/07/31 05:13:49;;;;;;;15.02;6.60;;;16.40;99.90;;;;;;5106610;28;20039;-34
2023/07/31 05:16:15;;;;;;;14.13;6.88;;;16.40;99.90;;;;;;5111281;28;20118;-33
2023/07/31 05:18:41;;;;;;;16.85;7.68;;;16.40;99.90;;;;;;5111707;28;20027;-33
2023/07/31 05:21:07;;;;;;;16.23;6.80;;;16.40;99.90;;;;;;5111344;28;20032;-33
2023/07/31 05:23:32;;;;;;;18.80;7.45;;;16.40;99.90;;;;;;5112061;28;20126;-33
2023/07/31 05:26:06;;;;;;;14.55;7.72;;;16.40;99.90;;;;;;5111895;28;20122;-33
2023/07/31 05:28:31;;;;;;;23.95;8.55;;;16.50;99.90;;;;;;5098598;28;20048;-34
2023/07/31 05:31:01;;;;;;;17.45;7.15;;;16.50;99.90;;;;;;5109282;28;20051;-34
2023/07/31 05:33:27;;;;;;;15.68;7.97;;;16.50;99.90;;;;;;5111763;28;20122;-33
2023/07/31 05:35:53;;;;;;;19.48;8.75;;;16.60;99.90;;;;;;5111890;28;20043;-33
2023/07/31 05:38:19;;;;;;;17.20;8.55;;;16.60;99.90;;;;;;5111758;28;20597;-34
2023/07/31 05:40:44;;;;;;;23.38;9.43;;;16.60;99.90;;;;;;5110901;28;20127;-33
2023/07/31 05:43:10;;;;;;;24.55;9.32;;;16.60;99.90;;;;;;5111452;28;20035;-34
2023/07/31 05:45:36;;;;;;;25.90;10.02;;;16.60;99.90;;;;;;5094111;28;20039;-33
2023/07/31 05:48:03;;;;;;;17.63;8.77;;;16.60;99.90;;;;;;5091247;28;20036;-33
2023/07/31 05:50:29;;;;;;;21.45;9.63;;;16.60;99.90;;;;;;5106673;28;20035;-34
2023/07/31 05:52:55;;;;;;;24.17;9.10;;;16.60;99.90;;;;;;5109835;28;20314;-34
2023/07/31 05:55:20;;;;;;;25.77;9.95;;;16.60;99.90;;;;;;5089955;28;20044;-33
2023/07/31 05:57:46;;;;;;;23.02;9.55;;;16.70;99.90;;;;;;5094060;28;20511;-34
2023/07/31 06:00:13;;;;;;;22.92;10.07;;;16.70;99.90;;;;;;5091257;28;20038;-34
2023/07/31 06:02:39;;;;;;;15.52;8.73;;;16.70;99.90;;;;;;5099272;28;20036;-33
2023/07/31 06:05:05;;;;;;;20.63;9.60;;;16.70;99.90;;;;;;5094320;28;20607;-34
2023/07/31 06:07:32;;;;;;;26.85;10.45;;;16.70;99.90;;;;;;5101923;28;20047;-33
2023/07/31 06:10:02;;;;;;;22.00;10.52;;;16.70;99.90;;;;;;5110376;28;20105;-33
2023/07/31 06:12:28;;;;;;;23.10;10.95;;;16.70;99.90;;;;;;5107091;28;20028;-33
2023/07/31 06:14:54;;;;;;;24.10;10.40;;;16.70;99.90;;;;;;5110248;28;20043;-33
2023/07/31 06:17:21;;;;;;;21.73;9.60;;;16.70;99.90;;;;;;5103629;28;20484;-33
2023/07/31 06:19:47;;;;;;;26.02;10.55;;;16.70;99.90;;;;;;5109530;28;20043;-33
2023/07/31 06:22:12;;;;;;;22.33;10.85;;;16.70;99.90;;;;;;5099820;28;20047;-33
2023/07/31 06:24:38;;;;;;;24.67;10.95;;;16.70;99.90;;;;;;5091824;28;20032;-33
2023/07/31 06:27:05;;;;;;;21.50;10.70;;;16.70;99.90;;;;;;5090412;28;20385;-33
2023/07/31 06:29:31;;;;;;;19.52;10.60;;;16.70;99.90;;;;;;5103947;28;20039;-34
2023/07/31 06:31:57;;;;;;;24.05;10.60;;;16.70;99.90;;;;;;5110301;28;20067;-33
2023/07/31 06:34:23;;;;;;;21.83;10.93;;;16.70;99.90;;;;;;5106820;28;20036;-33
2023/07/31 06:36:49;;;;;;;25.42;11.18;;;16.70;99.90;;;;;;5095268;28;20382;-34
2023/07/31 06:39:14;;;;;;;21.40;12.25;;;16.80;99.90;;;;;;5091571;28;20153;-33
2023/07/31 06:41:40;;;;;;;18.80;11.35;;;16.80;99.90;;;;;;5103602;28;20044;-33
2023/07/31 06:44:06;;;;;;;19.10;10.13;;;16.80;99.90;;;;;;5098461;28;20312;-33
2023/07/31 06:46:32;;;;;;;22.63;11.57;;;16.80;99.90;;;;;;5097388;28;20089;-33
2023/07/31 06:48:58;;;;;;;23.40;11.13;;;16.80;99.90;;;;;;5090860;28;20036;-34
2023/07/31 06:51:24;;;;;;;22.38;10.32;;;16.70;99.90;;;;;;5098146;28;20039;-33
2023/07/31 06:53:50;;;;;;;17.27;10.20;;;16.70;99.90;;;;;;5106927;28;20531;-33
2023/07/31 06:56:15;;;;;;;20.38;10.75;;;16.80;99.90;;;;;;5103134;28;20036;-33
2023/07/31 06:58:42;;;;;;;15.57;10.00;;;16.70;99.90;;;;;;5096278;28;20035;-34
2023/07/31 07:01:07;;;;;;;17.88;10.25;;;16.70;99.90;;;;;;5096687;28;20040;-33
2023/07/31 07:03:33;;;;;;;19.17;9.50;;;16.70;99.90;;;;;;5097494;28;20081;-33
2023/07/31 07:05:59;;;;;;;16.58;9.48;;;16.80;99.90;;;;;;5093026;28;20036;-33
2023/07/31 07:08:25;;;;;;;15.82;8.90;;;16.80;99.90;;;;;;5101749;28;20052;-34
2023/07/31 07:10:50;;;;;;;14.70;7.88;;;16.80;99.90;;;;;;5101113;28;20690;-34
2023/07/31 07:13:18;;;;;;;14.45;7.85;;;16.80;99.90;;;;;;5091223;28;20067;-33
2023/07/31 07:15:48;;;;;;;19.67;7.85;;;16.80;99.90;;;;;;5089734;28;20036;-33
2023/07/31 07:18:14;;;;;;;14.23;6.95;;;16.80;99.90;;;;;;5094786;28;20044;-33
2023/07/31 07:20:40;;;;;;;12.02;7.28;;;16.80;99.90;;;;;;5101034;28;20039;-33
2023/07/31 07:23:05;;;;;;;13.43;7.28;;;16.90;99.90;;;;;;5095945;28;20032;-33
2023/07/31 07:25:31;;;;;;;12.38;6.38;;;16.90;99.90;;;;;;5099178;28;20288;-34
2023/07/31 07:27:57;;;;;;;12.05;6.45;;;17.00;99.90;;;;;;5093905;28;20043;-34
2023/07/31 07:30:25;;;;;;;12.93;6.18;;;17.10;99.90;;;;;;5096148;28;20484;-34
2023/07/31 07:32:51;;;;;;;9.90;5.47;;;17.20;99.90;;;;;;5093967;28;20095;-34
2023/07/31 07:35:16;;;;;;;10.57;6.00;;;17.20;99.90;;;;;;5102010;28;20031;-33
2023/07/31 07:37:42;;;;;;;13.35;6.35;;;17.20;99.90;;;;;;5096593;28;20059;-34
2023/07/31 07:40:08;;;;;;;11.18;5.90;;;17.20;99.90;;;;;;5098254;28;20028;-33
2023/07/31 07:42:34;;;;;;;10.98;5.82;;;17.10;99.90;;;;;;5105347;28;20490;-33
2023/07/31 07:45:00;;;;;;;8.55;5.25;;;17.10;99.90;;;;;;5096208;28;20039;-34
2023/07/31 07:47:25;;;;;;;13.00;6.20;;;17.10;99.90;;;;;;5104255;28;20484;-33
2023/07/31 07:49:51;;;;;;;9.80;5.55;;;17.10;99.90;;;;;;5105022;27;20479;-33
2023/07/31 07:52:17;;;;;;;12.40;6.35;;;17.10;99.90;;;;;;5099112;28;20127;-33
2023/07/31 07:54:42;;;;;;;9.02;5.20;;;17.10;99.90;;;;;;5113338;28;20589;-33
2023/07/31 07:57:08;;;;;;;8.50;5.90;;;17.10;99.90;;;;;;5098615;28;20477;-34
2023/07/31 07:59:34;;;;;;;11.52;5.40;;;17.10;99.90;;;;;;5097293;28;20043;-33
2023/07/31 08:01:59;;;;;;;9.82;6.22;;;17.10;99.90;;;;;;5104044;28;20164;-33
2023/07/31 08:04:25;;;;;;;10.45;5.53;;;17.10;99.90;;;;;;5100433;28;20046;-33
2023/07/31 08:06:51;;;;;;;8.35;5.88;;;17.20;99.90;;;;;;5106763;28;20118;-33
2023/07/31 08:09:16;;;;;;;7.40;5.50;;;17.20;99.90;;;;;;5094510;28;20036;-33
2023/07/31 08:11:42;;;;;;;8.25;5.00;;;17.20;99.90;;;;;;5102065;28;20044;-34
2023/07/31 08:14:08;;;;;;;6.82;5.38;;;17.20;99.90;;;;;;5107548;27;20076;-33
2023/07/31 08:16:33;;;;;;;8.80;6.00;;;17.10;99.90;;;;;;5111696;27;20042;-33
2023/07/31 08:18:59;;;;;;;9.48;5.35;;;17.10;99.90;;;;;;5103756;28;20063;-33
2023/07/31 08:21:25;;;;;;;6.03;4.40;;;17.10;99.90;;;;;;5091767;28;20555;-33
2023/07/31 08:23:50;;;;;;;5.90;5.30;;;17.10;99.90;;;;;;5098022;28;20473;-33
2023/07/31 08:26:17;;;;;;;6.70;5.05;;;17.10;99.90;;;;;;5096202;28;20086;-33
2023/07/31 08:28:43;;;;;;;7.90;5.10;;;17.10;99.90;;;;;;5099525;28;20043;-33
2023/07/31 08:31:09;;;;;;;5.32;4.40;;;17.10;99.90;;;;;;5100345;28;20040;-33
2023/07/31 08:33:34;;;;;;;8.02;4.55;;;17.20;99.90;;;;;;5095436;28;20151;-34
2023/07/31 08:36:01;;;;;;;6.07;4.50;;;17.30;99.90;;;;;;5097585;28;20031;-33
2023/07/31 08:38:27;;;;;;;6.05;3.92;;;17.30;99.90;;;;;;5099015;28;20036;-33
2023/07/31 08:40:54;;;;;;;5.25;3.95;;;17.30;99.90;;;;;;5097093;28;20062;-33
2023/07/31 08:43:21;;;;;;;5.47;3.92;;;17.40;99.90;;;;;;5101642;28;20570;-34
2023/07/31 08:45:47;;;;;;;6.28;3.60;;;17.50;99.90;;;;;;5094525;28;20392;-33
2023/07/31 08:48:15;;;;;;;5.13;3.58;;;17.50;99.90;;;;;;5091162;28;20042;-33
2023/07/31 08:50:41;;;;;;;6.00;3.88;;;17.60;99.90;;;;;;5097699;28;20527;-33
2023/07/31 08:53:07;;;;;;;4.47;3.45;;;17.70;99.90;;;;;;5092062;28;20046;-33
2023/07/31 08:55:33;;;;;;;5.03;3.67;;;17.70;99.90;;;;;;5103836;28;20123;-33
2023/07/31 08:58:03;;;;;;;4.63;3.30;;;17.70;99.90;;;;;;5098301;28;20426;-34
2023/07/31 09:00:31;;;;;;;4.55;3.20;;;17.80;99.90;;;;;;5095215;28;20037;-34
2023/07/31 09:03:03;;;;;;;6.15;3.42;;;17.90;99.90;;;;;;5097954;28;20040;-34
2023/07/31 09:05:31;;;;;;;2.65;2.42;;;18.00;99.90;;;;;;5099089;28;20039;-33
2023/07/31 09:07:57;;;;;;;2.92;2.70;;;18.10;99.90;;;;;;5095049;27;20084;-33
2023/07/31 09:10:24;;;;;;;2.83;2.63;;;18.10;99.90;;;;;;5095821;28;20040;-34
2023/07/31 09:12:51;;;;;;;3.10;2.47;;;18.10;99.90;;;;;;5095050;28;20042;-33
2023/07/31 09:15:19;;;;;;;5.32;3.10;;;18.10;99.90;;;;;;5095117;28;20036;-33
2023/07/31 09:17:45;;;;;;;2.90;2.40;;;18.10;99.90;;;;;;5103373;28;20118;-34
2023/07/31 09:20:13;;;;;;;2.58;2.38;;;18.10;99.90;;;;;;5111956;28;20106;-33
2023/07/31 09:22:39;;;;;;;3.92;2.45;;;18.00;99.90;;;;;;5102970;28;20066;-33
2023/07/31 09:25:24;;;;;;;2.45;2.25;;;18.00;99.90;;;;;;5105593;28;20027;-33
2023/07/31 09:27:59;;;;;;;3.78;2.08;;;18.00;99.90;;;;;;5103115;28;20117;-34
2023/07/31 09:30:26;;;;;;;5.97;2.28;;;18.00;99.90;;;;;;5090995;28;20039;-33
2023/07/31 09:33:02;;;;;;;2.10;1.90;;;17.90;99.90;;;;;;5103095;28;20066;-33
2023/07/31 09:35:29;;;;;;;2.22;1.83;;;18.00;99.90;;;;;;5097590;28;20036;-33
2023/07/31 09:38:00;;;;;;;2.63;1.88;;;18.10;99.90;;;;;;5100007;28;20445;-34
2023/07/31 09:40:30;;;;;;;2.10;1.77;;;18.10;99.90;;;;;;5092014;28;20052;-34
2023/07/31 09:43:01;;;;;;;3.53;1.63;;;18.20;99.90;;;;;;5100724;28;20035;-33
2023/07/31 09:45:27;;;;;;;2.65;1.60;;;18.30;99.90;;;;;;5109457;28;20554;-33
2023/07/31 09:47:54;;;;;;;1.60;1.50;;;18.40;99.90;;;;;;5110899;28;20039;-34
2023/07/31 09:50:24;;;;;;;2.78;1.65;;;18.40;99.90;;;;;;5108096;27;20039;-33
2023/07/31 09:52:51;;;;;;;1.95;1.75;;;18.40;99.90;;;;;;5103036;28;20076;-34
2023/07/31 09:55:17;;;;;;;1.50;1.40;;;18.40;99.90;;;;;;5103248;28;20032;-33
2023/07/31 09:57:47;;;;;;;1.55;1.45;;;18.30;99.90;;;;;;5089598;28;20093;-34
2023/07/31 10:00:16;;;;;;;3.08;1.90;;;18.30;99.90;;;;;;5098769;28;20032;-34
2023/07/31 10:02:50;;;;;;;2.22;1.90;;;18.30;99.90;;;;;;5108684;28;20311;-34
2023/07/31 10:05:16;;;;;;;1.70;1.60;;;18.30;99.90;;;;;;5105382;28;20036;-33
2023/07/31 10:07:53;;;;;;;1.88;1.75;;;18.30;99.90;;;;;;5108032;28;20046;-34
2023/07/31 10:10:21;;;;;;;3.92;2.10;;;18.30;99.90;;;;;;5100688;28;20133;-34
2023/07/31 10:12:49;;;;;;;4.38;2.10;;;18.50;99.90;;;;;;5105828;28;20043;-34
2023/07/31 10:15:16;;;;;;;4.45;1.95;;;18.60;99.90;;;;;;5110150;28;20054;-34
2023/07/31 10:17:42;;;;;;;2.85;2.22;;;18.60;99.90;;;;;;5109128;28;20032;-34
2023/07/31 10:20:08;;;;;;;5.43;2.33;;;18.70;99.90;;;;;;5111762;28;20039;-33
2023/07/31 10:22:39;;;;;;;3.40;2.33;;;18.70;99.90;;;;;;5110948;28;20051;-34
2023/07/31 10:25:08;;;;;;;3.28;2.30;;;18.80;99.90;;;;;;5111065;28;20042;-34
2023/07/31 10:27:40;;;;;;;2.50;2.30;;;18.90;99.90;;;;;;5109075;27;20040;-34
2023/07/31 10:30:11;;;;;;;5.05;3.03;;;19.10;99.90;;;;;;5103128;28;20097;-33
2023/07/31 10:32:40;;;;;;;3.03;2.83;;;19.10;99.90;;;;;;5105007;28;20054;-33
2023/07/31 10:35:07;;;;;;;2.67;2.47;;;19.00;99.90;;;;;;5099427;28;20115;-33
2023/07/31 10:37:38;;;;;;;3.28;2.90;;;19.00;99.90;;;;;;5107526;28;20031;-33
2023/07/31 10:40:13;;;;;;;2.78;2.47;;;18.90;99.90;;;;;;5106096;27;20038;-34
2023/07/31 10:42:47;;;;;;;2.47;2.28;;;18.90;99.90;;;;;;5088165;28;20052;-34
2023/07/31 10:45:13;;;;;;;2.70;2.50;;;19.00;99.90;;;;;;5103140;28;20047;-34
2023/07/31 10:47:43;;;;;;;3.47;2.60;;;18.90;99.90;;;;;;5110855;27;20063;-33
2023/07/31 10:50:21;;;;;;;2.72;2.53;;;19.00;99.90;;;;;;5108591;28;20067;-34
2023/07/31 10:52:52;;;;;;;2.50;2.30;;;19.20;99.90;;;;;;5095925;28;20044;-34
2023/07/31 10:55:24;;;;;;;2.65;2.45;;;19.30;99.90;;;;;;5109328;28;20031;-33
2023/07/31 10:57:49;;;;;;;1.83;1.73;;;19.50;99.90;;;;;;5105639;28;20047;-33
2023/07/31 11:00:27;;;;;;;2.00;1.90;;;19.60;99.90;;;;;;5095871;28;20027;-34
2023/07/31 11:03:04;;;;;;;2.00;1.90;;;19.80;99.90;;;;;;5099197;28;20048;-34
2023/07/31 11:05:46;;;;;;;2.10;2.00;;;19.90;99.90;;;;;;5092650;28;20046;-34
2023/07/31 11:08:12;;;;;;;2.20;2.10;;;20.10;99.90;;;;;;5085017;28;20042;-32
2023/07/31 11:10:40;;;;;;;2.72;2.40;;;20.10;99.90;;;;;;5103928;27;20071;-33
2023/07/31 11:13:06;;;;;;;2.42;2.30;;;20.10;99.90;;;;;;5108183;28;20035;-33
2023/07/31 11:15:32;;;;;;;2.40;2.20;;;20.10;99.90;;;;;;5111006;28;20023;-33
2023/07/31 11:17:58;;;;;;;2.60;2.40;;;20.10;99.90;;;;;;5107960;27;20032;-32
2023/07/31 11:20:29;;;;;;;2.88;2.67;;;20.00;99.90;;;;;;5102842;28;20039;-33
2023/07/31 11:22:54;;;;;;;2.90;2.60;;;19.90;99.90;;;;;;5110773;27;20046;-33
2023/07/31 11:25:22;;;;;;;3.03;2.50;;;19.90;99.90;;;;;;5102668;27;20036;-34
2023/07/31 11:27:53;;;;;;;2.75;2.55;;;19.90;99.90;;;;;;5105387;28;20051;-34
2023/07/31 11:30:20;;;;;;;5.90;3.10;;;19.80;99.90;;;;;;5108604;28;21193;-33
2023/07/31 11:32:45;;;;;;;3.17;2.33;;;19.80;99.90;;;;;;5107214;28;20055;-34
2023/07/31 11:35:14;;;;;;;14.10;3.75;;;19.70;99.90;;;;;;5096415;28;20032;-34
2023/07/31 11:37:45;;;;;;;3.40;1.50;;;19.70;99.90;;;;;;5103482;28;20115;-33
2023/07/31 11:40:11;;;;;;;2.15;2.05;;;19.70;99.90;;;;;;5107788;28;20043;-33
2023/07/31 11:42:37;;;;;;;2.08;1.98;;;19.60;99.90;;;;;;5098721;28;20035;-34
2023/07/31 11:45:06;;;;;;;2.47;2.00;;;19.70;99.90;;;;;;5110953;28;20104;-34
2023/07/31 11:47:36;;;;;;;1.98;1.77;;;19.90;99.90;;;;;;5123711;27;20046;-34
2023/07/31 11:50:10;;;;;;;2.03;1.92;;;19.90;99.90;;;;;;5102092;27;20106;-33
2023/07/31 11:52:41;;;;;;;1.98;1.88;;;19.80;99.90;;;;;;5107641;27;20036;-34
2023/07/31 11:55:11;;;;;;;1.90;1.77;;;19.80;99.90;;;;;;5092820;28;20527;-32
2023/07/31 11:57:41;;;;;;;2.28;1.45;;;19.70;99.90;;;;;;5093069;28;20508;-32
2023/07/31 12:00:10;;;;;;;2.08;1.50;;;19.50;99.90;;;;;;5091754;28;20055;-32
2023/07/31 12:02:39;;;;;;;1.23;1.13;;;19.50;99.90;;;;;;5108298;28;20090;-32
2023/07/31 12:05:05;;;;;;;1.48;0.90;;;19.40;99.90;;;;;;5096619;28;20078;-32
2023/07/31 12:07:44;;;;;;;0.70;0.70;;;19.40;99.90;;;;;;5105731;28;20032;-33
2023/07/31 12:10:11;;;;;;;1.00;0.90;;;19.50;99.90;;;;;;5106153;28;20496;-32
2023/07/31 12:12:37;;;;;;;1.23;0.90;;;19.60;99.90;;;;;;5105751;28;20036;-33
2023/07/31 12:15:14;;;;;;;0.98;0.98;;;19.60;99.90;;;;;;5106855;27;20039;-35
2023/07/31 12:17:39;;;;;;;1.23;1.23;;;19.60;99.90;;;;;;5107790;28;20440;-32
2023/07/31 12:20:07;;;;;;;1.63;1.52;;;19.70;99.90;;;;;;5101767;28;20074;-33
2023/07/31 12:22:34;;;;;;;1.90;1.80;;;19.70;99.90;;;;;;5101881;28;20036;-33
2023/07/31 12:24:59;;;;;;;1.60;1.50;;;19.70;99.90;;;;;;5110011;28;20462;-33
2023/07/31 12:27:33;;;;;;;1.80;1.70;;;19.80;99.90;;;;;;5093589;28;20032;-33
2023/07/31 12:29:59;;;;;;;2.08;1.85;;;19.90;99.90;;;;;;5108989;28;20472;-33
2023/07/31 12:32:28;;;;;;;1.50;1.40;;;20.00;99.90;;;;;;5110306;28;20054;-33
2023/07/31 12:34:54;;;;;;;1.45;1.38;;;20.10;99.90;;;;;;5112829;28;20032;-33
2023/07/31 12:37:21;;;;;;;2.05;1.65;;;20.10;99.90;;;;;;5103219;28;20027;-33
2023/07/31 12:39:46;;;;;;;1.73;1.63;;;20.10;99.90;;;;;;5096968;28;20519;-32
2023/07/31 12:42:12;;;;;;;2.88;1.88;;;20.10;99.90;;;;;;5106224;28;20036;-32